West Paducah, KY

5:02 PM CDT on August 25, 2016 (GMT -0500)
Heath | | Change Station

Elev 395 ft 37.07 °N, 88.81 °W | Updated 5 seconds ago

Partly Cloudy
Partly Cloudy
91.0 °F
Feels Like 103 °F
N
0.0
Wind Variable Wind from North
Gusts 0.0 mph

Today
High -- | Low -- °F
--% Chance of Precip.
Yesterday
High -- | Low -- °F
Precip. -- in
Pressure 30.03 in
Visibility 10.0 miles
Clouds Few 4600 ft
Heat Index 103 °F
Dew Point 76 °F
Humidity 62%
Rainfall 0.00 in
Snow Depth Not available.
6:20 AM 7:32 PM
Last Quarter, 41% visible
METAR KPAH 252153Z 20004KT 10SM FEW046 32/24 A3004 RMK AO2 SLP167 T03170239
Pressure 30.03 in
Visibility 10.0 miles
Clouds Few 4600 ft
Heat Index 103 °F
Dew Point 76 °F
Humidity 62%
Rainfall 0.00 in
Snow Depth Not available.
6:20 AM 7:32 PM
Last Quarter, 41% visible
METAR KPAH 252153Z 20004KT 10SM FEW046 32/24 A3004 RMK AO2 SLP167 T03170239
A tropical disturbance pushing toward the Bahamas, is expected to develop into a tropical depression or storm, and will likely target Florida and the Gulf Coast this weekend into next week.

Right now, the disturbance remains a broad area of low pressure pushing through the Dominican Republic and Haiti, headed toward the southeast Bahamas. Rainfall totals over 3 inches (with locally higher amounts) are expected in HispaƱiola, particularly over elevated terrain.

10-Day Weather Forecast

Almanac

Astronomy

Aug. 25, 2016 Rise Set
Actual Time
Civil Twilight
Nautical Twilight
Astronomical Twilight
Moon
Length of Visible Light
Length of Day
Tomorrow will be .
, % of the Moon is Illuminated

Today's Extremes

State Highs State Lows

Community

WunderPhotos

Upload Photos

1,934,951 photos uploaded!

WunderBlog® & News

Nearby

Air Quality

  Air Quality AQ Index Pollutant
Not available.

Snow Depth

Station Depth Elevation

Earthquake Activity

City Distance Mag. Time & Date
Minimum magnitude displayed is 2.5.

Coastal Water Temperatures

Place Temperature

Stations

Nearby Weather Stations

Station Location Temp. Windchill Dew Point Humidity Wind Precip. Elev Updated Type
                   

Watches & Warnings

There are currently no watches in effect.